Time;durP1;ratioP1;P1;durP2;ratioP2;P2;SDS_P1;SDS_P2;PMS_P1;PMS_P2;Temp;Humidity;BMP_temperature;BMP_pressure;BME280_temperature;BME280_humidity;BME280_pressure;Samples;Min_cycle;Max_cycle;Signal;HPM_P1;HPM_P2
2023/12/16 00:00:37;;;;;;;;;;;;;;;22.05;32.58;103769.00;4232471;28;19962;-53
2023/12/16 00:02:38;;;;;;;;;;;;;;;22.00;32.63;103763.78;4233147;28;19920;-55
2023/12/16 00:04:40;;;;;;;;;;;;;;;21.98;32.65;103768.34;4232886;28;20366;-53
2023/12/16 00:06:42;;;;;;;;;;;;;;;21.97;32.33;103763.91;4232502;28;19920;-53
2023/12/16 00:08:44;;;;;;;;;;;;;;;21.98;32.60;103763.00;4232668;28;19920;-53
2023/12/16 00:10:45;;;;;;;;;;;;;;;22.00;32.27;103769.16;4231669;28;19923;-53
2023/12/16 00:12:47;;;;;;;;;;;;;;;22.03;32.57;103765.50;4232470;28;19926;-54
2023/12/16 00:14:49;;;;;;;;;;;;;;;22.05;32.55;103765.44;4232206;28;19924;-55
2023/12/16 00:16:51;;;;;;;;;;;;;;;22.05;32.57;103758.28;4232254;28;20350;-54
2023/12/16 00:18:52;;;;;;;;;;;;;;;22.06;32.55;103760.03;4231339;28;19927;-53
2023/12/16 00:20:54;;;;;;;;;;;;;;;22.05;32.53;103758.28;4232636;28;19924;-54
2023/12/16 00:22:55;;;;;;;;;;;;;;;22.03;32.52;103760.16;4232207;28;20286;-54
2023/12/16 00:24:57;;;;;;;;;;;;;;;21.97;32.63;103755.88;4232370;28;19920;-51
2023/12/16 00:26:59;;;;;;;;;;;;;;;21.96;32.42;103761.31;4232223;28;19919;-52
2023/12/16 00:29:00;;;;;;;;;;;;;;;21.96;32.34;103758.63;4231937;28;20279;-53
2023/12/16 00:31:02;;;;;;;;;;;;;;;21.97;32.59;103753.19;4232188;28;19959;-52
2023/12/16 00:33:04;;;;;;;;;;;;;;;21.99;32.37;103758.50;4231331;28;20376;-54
2023/12/16 00:35:07;;;;;;;;;;;;;;;22.01;32.24;103762.88;4232513;28;19924;-55
2023/12/16 00:37:08;;;;;;;;;;;;;;;22.03;32.56;103757.47;4232389;28;19919;-52
2023/12/16 00:39:10;;;;;;;;;;;;;;;22.06;32.35;103761.84;4232009;28;19962;-52
2023/12/16 00:41:11;;;;;;;;;;;;;;;22.06;32.64;103759.16;4232562;28;19961;-52
2023/12/16 00:43:13;;;;;;;;;;;;;;;22.05;32.55;103758.28;4230818;28;20015;-52
2023/12/16 00:45:15;;;;;;;;;;;;;;;22.01;32.34;103764.69;4232387;28;19920;-52
2023/12/16 00:47:20;;;;;;;;;;;;;;;21.96;32.50;103759.47;4232336;28;19920;-54
2023/12/16 00:49:22;;;;;;;;;;;;;;;21.95;32.38;103762.22;4232422;28;19923;-54
2023/12/16 00:51:24;;;;;;;;;;;;;;;21.96;32.66;103758.63;4232230;28;20315;-53
2023/12/16 00:53:25;;;;;;;;;;;;;;;21.95;32.29;103763.09;4232061;28;20002;-52
2023/12/16 00:55:26;;;;;;;;;;;;;;;21.97;32.59;103758.56;4231993;28;19919;-52
2023/12/16 00:57:28;;;;;;;;;;;;;;;22.00;32.53;103762.94;4231822;28;19920;-53
2023/12/16 00:59:30;;;;;;;;;;;;;;;22.00;32.15;103754.88;4231839;28;20068;-54
2023/12/16 01:01:31;;;;;;;;;;;;;;;22.01;32.33;103753.97;4231881;28;19926;-52
2023/12/16 01:03:34;;;;;;;;;;;;;;;22.01;32.45;103753.97;4230570;28;19953;-52
2023/12/16 01:05:37;;;;;;;;;;;;;;;21.99;32.18;103764.75;4231823;28;19920;-51
2023/12/16 01:07:39;;;;;;;;;;;;;;;21.98;32.31;103764.78;4232016;28;19919;-53
2023/12/16 01:09:41;;;;;;;;;;;;;;;21.95;32.45;103756.88;4231414;28;20420;-53
2023/12/16 01:11:43;;;;;;;;;;;;;;;21.94;32.28;103755.97;4231402;28;19945;-54
2023/12/16 01:13:44;;;;;;;;;;;;;;;21.94;32.47;103757.78;4231693;28;20019;-53
2023/12/16 01:15:46;;;;;;;;;;;;;;;21.96;32.11;103755.94;4231406;28;20394;-52
2023/12/16 01:17:47;;;;;;;;;;;;;;;21.97;32.55;103758.56;4231695;28;19931;-52
2023/12/16 01:19:49;;;;;;;;;;;;;;;21.99;32.41;103755.81;4231173;28;19926;-52
2023/12/16 01:21:50;;;;;;;;;;;;;;;21.99;32.64;103750.44;4231659;28;20283;-54
2023/12/16 01:23:52;;;;;;;;;;;;;;;22.01;32.30;103754.81;4231441;28;20309;-52
2023/12/16 01:25:54;;;;;;;;;;;;;;;22.02;32.38;103745.84;4229951;28;19992;-51
2023/12/16 01:27:55;;;;;;;;;;;;;;;22.02;32.20;103748.53;4231507;28;19926;-54
2023/12/16 01:29:56;;;;;;;;;;;;;;;22.00;32.32;103747.72;4231626;28;20306;-50
2023/12/16 01:31:58;;;;;;;;;;;;;;;21.97;32.08;103750.53;4231369;28;20369;-52
2023/12/16 01:33:59;;;;;;;;;;;;;;;21.95;31.97;103755.03;4231246;28;19974;-55
2023/12/16 01:36:02;;;;;;;;;;;;;;;21.94;32.54;103750.59;4231456;28;20006;-54
2023/12/16 01:38:03;;;;;;;;;;;;;;;21.95;31.99;103744.31;4230132;28;19920;-53
2023/12/16 01:40:05;;;;;;;;;;;;;;;21.96;32.36;103748.75;4231376;28;20038;-52
2023/12/16 01:42:07;;;;;;;;;;;;;;;21.99;32.33;103761.16;4231051;28;20436;-54
2023/12/16 01:44:08;;;;;;;;;;;;;;;22.00;32.00;103757.56;4230989;28;19924;-54
2023/12/16 01:46:10;;;;;;;;;;;;;;;22.01;32.03;103756.63;4231107;28;19943;-54
2023/12/16 01:48:12;;;;;;;;;;;;;;;22.01;32.26;103757.50;4231282;28;19970;-53
2023/12/16 01:50:14;;;;;;;;;;;;;;;22.01;32.33;103756.63;4231140;28;20429;-53
2023/12/16 01:52:16;;;;;;;;;;;;;;;21.99;32.14;103746.00;4231232;28;19919;-53
2023/12/16 01:54:19;;;;;;;;;;;;;;;21.97;32.27;103760.34;4231236;28;19920;-53
2023/12/16 01:56:21;;;;;;;;;;;;;;;21.94;32.06;103765.81;4230710;28;19923;-53
2023/12/16 01:58:23;;;;;;;;;;;;;;;21.92;32.21;103767.69;4230844;28;19959;-53
2023/12/16 02:00:26;;;;;;;;;;;;;;;21.91;32.22;103773.97;4230865;28;19920;-53
2023/12/16 02:02:28;;;;;;;;;;;;;;;21.94;31.99;103771.19;4230973;28;19920;-51
2023/12/16 02:04:30;;;;;;;;;;;;;;;21.96;32.22;103774.69;4231075;28;19920;-53
2023/12/16 02:06:32;;;;;;;;;;;;;;;21.97;32.01;103781.78;4230624;28;19927;-52
2023/12/16 02:08:33;;;;;;;;;;;;;;;21.99;32.31;103774.56;4231013;27;20460;-53
2023/12/16 02:10:35;;;;;;;;;;;;;;;21.99;31.99;103775.47;4230440;28;20344;-54
2023/12/16 02:12:37;;;;;;;;;;;;;;;21.98;32.19;103775.50;4231060;28;19919;-54
2023/12/16 02:14:38;;;;;;;;;;;;;;;21.97;32.04;103776.41;4230900;28;19926;-53
2023/12/16 02:16:40;;;;;;;;;;;;;;;21.93;32.25;103780.16;4229482;28;19919;-53
2023/12/16 02:18:41;;;;;;;;;;;;;;;21.89;31.95;103775.84;4230886;28;19965;-53
2023/12/16 02:20:46;;;;;;;;;;;;;;;21.88;31.95;103769.59;4230532;28;19919;-53
2023/12/16 02:22:48;;;;;;;;;;;;;;;21.90;32.25;103769.56;4230667;28;20023;-54
2023/12/16 02:24:50;;;;;;;;;;;;;;;21.89;31.97;103757.94;4230672;28;19923;-53
2023/12/16 02:26:52;;;;;;;;;;;;;;;21.91;32.14;103760.56;4230583;28;19939;-53
2023/12/16 02:28:53;;;;;;;;;;;;;;;21.93;31.97;103764.94;4230835;28;20393;-53
2023/12/16 02:30:55;;;;;;;;;;;;;;;21.95;31.79;103764.91;4230323;28;19927;-53
2023/12/16 02:32:57;;;;;;;;;;;;;;;21.94;31.87;103765.81;4230814;28;19927;-54
2023/12/16 02:34:58;;;;;;;;;;;;;;;21.96;31.91;103763.97;4230660;28;19919;-56
2023/12/16 02:37:05;;;;;;;;;;;;;;;21.94;32.02;103763.16;4230256;28;19920;-54
2023/12/16 02:39:07;;;;;;;;;;;;;;;21.89;31.94;103770.47;4230083;28;20031;-53
2023/12/16 02:41:11;;;;;;;;;;;;;;;21.87;32.16;103770.50;4230498;28;19920;-53
2023/12/16 02:43:12;;;;;;;;;;;;;;;21.85;32.03;103767.91;4230588;28;20026;-54
2023/12/16 02:45:14;;;;;;;;;;;;;;;21.85;31.86;103775.94;4230568;28;19920;-51
2023/12/16 02:47:16;;;;;;;;;;;;;;;21.86;31.75;103777.69;4230397;28;20538;-54
2023/12/16 02:49:17;;;;;;;;;;;;;;;21.89;31.95;103781.19;4230567;28;19926;-55
2023/12/16 02:51:19;;;;;;;;;;;;;;;21.89;31.91;103784.75;4230662;28;20015;-53
2023/12/16 02:53:21;;;;;;;;;;;;;;;21.91;31.96;103782.91;4229812;28;20409;-54
2023/12/16 02:55:22;;;;;;;;;;;;;;;21.92;31.90;103789.13;4231747;28;19946;-54
2023/12/16 02:57:24;;;;;;;;;;;;;;;21.92;31.72;103787.31;4233940;28;20295;-53
2023/12/16 02:59:25;;;;;;;;;;;;;;;21.91;31.79;103784.69;4234057;28;19967;-52
2023/12/16 03:01:27;;;;;;;;;;;;;;;21.87;31.59;103786.59;4233999;28;20480;-54
2023/12/16 03:03:29;;;;;;;;;;;;;;;21.83;31.70;103784.97;4233990;28;20393;-55
2023/12/16 03:05:31;;;;;;;;;;;;;;;21.80;31.82;103785.94;4233991;28;20263;-54
2023/12/16 03:07:32;;;;;;;;;;;;;;;21.80;31.66;103788.63;4233237;28;19923;-54
2023/12/16 03:09:34;;;;;;;;;;;;;;;21.81;31.65;103785.03;4233922;28;19958;-54
2023/12/16 03:11:36;;;;;;;;;;;;;;;21.82;31.77;103800.16;4233988;28;20374;-54
2023/12/16 03:13:37;;;;;;;;;;;;;;;21.86;31.51;103795.59;4233680;28;19919;-53
2023/12/16 03:15:38;;;;;;;;;;;;;;;21.88;31.76;103806.25;4233651;28;19942;-53
2023/12/16 03:17:40;;;;;;;;;;;;;;;21.89;31.46;103806.19;4233461;28;19972;-55
2023/12/16 03:19:42;;;;;;;;;;;;;;;21.89;31.36;103805.31;4233576;28;19924;-53
2023/12/16 03:21:44;;;;;;;;;;;;;;;21.85;31.78;103805.41;4234019;28;20367;-52
2023/12/16 03:23:45;;;;;;;;;;;;;;;21.82;31.78;103810.88;4232636;28;19919;-55
2023/12/16 03:25:47;;;;;;;;;;;;;;;21.81;31.59;103802.88;4233453;28;19926;-54
2023/12/16 03:27:48;;;;;;;;;;;;;;;21.80;31.88;103804.69;4233619;28;19927;-52
2023/12/16 03:29:50;;;;;;;;;;;;;;;21.79;31.80;103805.63;4233472;28;19948;-53
2023/12/16 03:31:51;;;;;;;;;;;;;;;21.81;31.85;103795.75;4233478;28;19930;-54
2023/12/16 03:33:53;;;;;;;;;;;;;;;21.83;31.83;103809.06;4233176;28;19924;-54
2023/12/16 03:35:55;;;;;;;;;;;;;;;21.84;31.74;103800.97;4233401;27;19923;-54
2023/12/16 03:37:56;;;;;;;;;;;;;;;21.88;31.76;103798.19;4233067;28;19920;-55
2023/12/16 03:39:58;;;;;;;;;;;;;;;21.88;31.81;103792.84;4233171;28;19951;-54
2023/12/16 03:41:59;;;;;;;;;;;;;;;21.89;31.75;103792.78;4233525;28;19957;-54
2023/12/16 03:44:01;;;;;;;;;;;;;;;21.85;31.42;103789.34;4233133;28;19929;-55
2023/12/16 03:46:02;;;;;;;;;;;;;;;21.81;31.60;103785.03;4233052;28;19920;-53
2023/12/16 03:48:04;;;;;;;;;;;;;;;21.79;31.61;103786.88;4233271;28;19924;-55
2023/12/16 03:50:06;;;;;;;;;;;;;;;21.78;31.66;103784.25;4233097;28;20006;-54
2023/12/16 03:52:08;;;;;;;;;;;;;;;21.77;31.44;103782.50;4232685;28;19919;-54
2023/12/16 03:54:09;;;;;;;;;;;;;;;21.79;31.62;103789.53;4232794;28;19920;-54
2023/12/16 03:56:11;;;;;;;;;;;;;;;21.80;31.60;103782.38;4221898;28;19923;-53
2023/12/16 03:58:12;;;;;;;;;;;;;;;21.83;31.71;103791.19;4233198;28;20034;-53
2023/12/16 04:00:14;;;;;;;;;;;;;;;21.85;31.65;103791.16;4232830;28;19923;-52
2023/12/16 04:02:16;;;;;;;;;;;;;;;21.86;31.56;103782.19;4232864;28;19923;-52
2023/12/16 04:04:17;;;;;;;;;;;;;;;21.89;31.42;103789.25;4232881;28;19919;-53
2023/12/16 04:06:19;;;;;;;;;;;;;;;21.89;31.74;103792.78;4232449;28;20358;-52
2023/12/16 04:08:21;;;;;;;;;;;;;;;21.86;31.58;103790.22;4233130;28;20391;-53
2023/12/16 04:10:22;;;;;;;;;;;;;;;21.82;31.78;103791.25;4232665;28;19919;-50
2023/12/16 04:12:24;;;;;;;;;;;;;;;21.79;31.65;103788.69;4232714;28;19923;-53
2023/12/16 04:14:25;;;;;;;;;;;;;;;21.79;31.46;103778.84;4232754;27;19919;-54
2023/12/16 04:16:27;;;;;;;;;;;;;;;21.80;31.49;103783.25;4232472;28;19945;-53
2023/12/16 04:18:29;;;;;;;;;;;;;;;21.80;31.90;103782.38;4232733;28;19923;-54
2023/12/16 04:20:31;;;;;;;;;;;;;;;21.82;31.50;103777.84;4231991;28;19965;-54
2023/12/16 04:22:33;;;;;;;;;;;;;;;21.83;31.62;103780.47;4232486;28;20010;-53
2023/12/16 04:24:34;;;;;;;;;;;;;;;21.85;31.87;103783.13;4232329;28;19946;-52
2023/12/16 04:26:36;;;;;;;;;;;;;;;21.86;31.67;103777.69;4231158;28;19920;-55
2023/12/16 04:28:37;;;;;;;;;;;;;;;21.78;31.47;103765.50;4232768;28;20282;-52
2023/12/16 04:30:39;;;;;;;;;;;;;;;21.82;31.58;103773.38;4237278;27;20034;-54
2023/12/16 04:32:41;;;;;;;;;;;;;;;21.80;31.68;103768.97;4232692;28;19923;-54
2023/12/16 04:34:42;;;;;;;;;;;;;;;21.74;31.84;103770.09;4232230;28;19926;-54
2023/12/16 04:36:44;;;;;;;;;;;;;;;21.74;32.05;103775.44;4232239;28;19972;-53
2023/12/16 04:38:45;;;;;;;;;;;;;;;21.74;31.67;103764.72;4232328;28;19924;-53
2023/12/16 04:40:47;;;;;;;;;;;;;;;21.78;31.74;103769.03;4232243;28;20040;-53
2023/12/16 04:42:48;;;;;;;;;;;;;;;21.81;31.91;103778.78;4231300;28;19930;-54
2023/12/16 04:44:50;;;;;;;;;;;;;;;21.83;31.94;103771.56;4232423;28;19920;-53
2023/12/16 04:46:52;;;;;;;;;;;;;;;21.85;31.59;103770.56;4232079;28;19927;-54
2023/12/16 04:48:54;;;;;;;;;;;;;;;21.86;31.68;103769.66;4231814;28;20130;-53
2023/12/16 04:50:55;;;;;;;;;;;;;;;21.88;31.77;103771.41;4231946;28;19919;-54
2023/12/16 04:52:57;;;;;;;;;;;;;;;21.86;31.64;103776.84;4232313;28;20353;-51
2023/12/16 04:54:58;;;;;;;;;;;;;;;21.79;31.86;103773.47;4232135;28;20010;-54
2023/12/16 04:57:00;;;;;;;;;;;;;;;21.70;31.82;103769.31;4231774;28;19920;-55
2023/12/16 04:59:02;;;;;;;;;;;;;;;21.66;31.75;103773.00;4232293;28;20030;-54
2023/12/16 05:01:03;;;;;;;;;;;;;;;21.66;31.89;103775.69;4231682;28;20291;-53
2023/12/16 05:03:05;;;;;;;;;;;;;;;21.68;31.52;103768.47;4232135;28;19955;-53
2023/12/16 05:05:07;;;;;;;;;;;;;;;21.73;31.82;103768.31;4231517;28;19927;-55
2023/12/16 05:07:08;;;;;;;;;;;;;;;21.77;31.78;103769.09;4231490;28;19928;-53
2023/12/16 05:09:12;;;;;;;;;;;;;;;21.79;31.80;103768.13;4232218;28;20347;-55
2023/12/16 05:11:14;;;;;;;;;;;;;;;21.80;31.39;103769.88;4231731;28;19920;-53
2023/12/16 05:13:15;;;;;;;;;;;;;;;21.82;31.57;103772.47;4231670;28;19923;-54
2023/12/16 05:15:17;;;;;;;;;;;;;;;21.82;31.44;103768.03;4231714;28;20006;-53
2023/12/16 05:17:19;;;;;;;;;;;;;;;21.78;31.64;103766.34;4231390;28;20002;-53
2023/12/16 05:19:21;;;;;;;;;;;;;;;21.76;31.92;103770.03;4230927;28;19927;-54
2023/12/16 05:21:23;;;;;;;;;;;;;;;21.74;31.68;103761.16;4231715;28;19926;-53
2023/12/16 05:23:24;;;;;;;;;;;;;;;21.73;31.86;103762.97;4231418;28;19919;-54
2023/12/16 05:25:27;;;;;;;;;;;;;;;21.73;31.86;103765.66;4231522;28;20390;-52
2023/12/16 05:27:29;;;;;;;;;;;;;;;21.76;31.68;103759.31;4231415;28;20283;-53
2023/12/16 05:29:30;;;;;;;;;;;;;;;21.77;31.91;103761.06;4230344;28;19966;-53
2023/12/16 05:31:32;;;;;;;;;;;;;;;21.81;31.46;103773.41;4231457;28;20010;-53
2023/12/16 05:33:33;;;;;;;;;;;;;;;21.81;31.91;103760.91;4231228;28;19959;-54
2023/12/16 05:35:35;;;;;;;;;;;;;;;21.83;31.77;103766.19;4231576;28;19931;-53
2023/12/16 05:37:36;;;;;;;;;;;;;;;21.80;31.77;103758.25;4231395;28;19927;-54
2023/12/16 05:39:38;;;;;;;;;;;;;;;21.78;31.92;103765.50;4231449;28;20362;-54
2023/12/16 05:41:40;;;;;;;;;;;;;;;21.74;31.66;103770.09;4231561;28;20419;-53
2023/12/16 05:43:42;;;;;;;;;;;;;;;21.73;31.69;103768.31;4231214;28;19919;-53
2023/12/16 05:45:43;;;;;;;;;;;;;;;21.73;32.07;103770.16;4231503;28;20389;-54
2023/12/16 05:47:45;;;;;;;;;;;;;;;21.75;31.98;103762.91;4230737;28;20456;-53
2023/12/16 05:49:46;;;;;;;;;;;;;;;21.74;31.97;103762.03;4231407;28;19919;-54
2023/12/16 05:51:48;;;;;;;;;;;;;;;21.75;31.94;103760.22;4231144;28;19920;-53
2023/12/16 05:53:49;;;;;;;;;;;;;;;21.76;31.60;103762.84;4231114;28;19996;-54
2023/12/16 05:55:51;;;;;;;;;;;;;;;21.78;31.66;103763.69;4231275;28;20019;-54
2023/12/16 05:57:52;;;;;;;;;;;;;;;21.78;31.56;103770.84;4230982;28;20377;-53
2023/12/16 05:59:54;;;;;;;;;;;;;;;21.76;31.90;103772.69;4231129;28;19923;-54
2023/12/16 06:01:55;;;;;;;;;;;;;;;21.74;31.81;103769.19;4230894;28;19976;-50
2023/12/16 06:03:57;;;;;;;;;;;;;;;21.69;31.75;103774.72;4230972;28;19920;-53
2023/12/16 06:05:59;;;;;;;;;;;;;;;21.63;31.99;103772.22;4230859;28;19927;-55
2023/12/16 06:08:00;;;;;;;;;;;;;;;21.58;31.88;103766.16;4231123;28;19920;-54
2023/12/16 06:10:02;;;;;;;;;;;;;;;21.61;31.72;103768.75;4230746;28;20006;-53
2023/12/16 06:12:08;;;;;;;;;;;;;;;21.62;31.93;103774.06;4231029;28;19929;-51
2023/12/16 06:14:10;;;;;;;;;;;;;;;21.64;31.61;103772.22;4230864;28;20010;-54
2023/12/16 06:16:13;;;;;;;;;;;;;;;21.64;31.85;103776.66;4230747;28;19928;-54
2023/12/16 06:18:20;;;;;;;;;;;;;;;21.65;31.75;103786.47;4231096;28;19919;-51
2023/12/16 06:20:22;;;;;;;;;;;;;;;21.66;31.47;103774.81;4230664;28;20401;-53
2023/12/16 06:22:24;;;;;;;;;;;;;;;21.66;31.52;103778.38;4230900;28;19927;-54
2023/12/16 06:24:25;;;;;;;;;;;;;;;21.64;31.53;103787.38;4230291;28;19924;-53
2023/12/16 06:26:27;;;;;;;;;;;;;;;21.61;31.70;103791.03;4230867;28;19920;-52
2023/12/16 06:28:28;;;;;;;;;;;;;;;21.59;31.80;103792.03;4230734;28;19971;-50
2023/12/16 06:30:30;;;;;;;;;;;;;;;21.58;31.68;103788.47;4231159;28;20302;-51
2023/12/16 06:32:31;;;;;;;;;;;;;;;21.60;31.83;103791.09;4230661;28;19963;-50
2023/12/16 06:34:33;;;;;;;;;;;;;;;21.61;31.49;103795.53;4230576;28;20282;-54
2023/12/16 06:36:35;;;;;;;;;;;;;;;21.61;31.61;103788.38;4230713;28;19920;-53
2023/12/16 06:38:36;;;;;;;;;;;;;;;21.64;31.73;103788.28;4230726;28;19924;-54
2023/12/16 06:40:38;;;;;;;;;;;;;;;21.65;31.77;103790.03;4230557;28;19919;-53
2023/12/16 06:42:40;;;;;;;;;;;;;;;21.66;31.72;103791.75;4229522;28;19943;-53
2023/12/16 06:44:42;;;;;;;;;;;;;;;21.65;31.70;103800.75;4230534;28;20327;-54
2023/12/16 06:46:43;;;;;;;;;;;;;;;21.61;31.40;103798.22;4228908;28;19925;-55
2023/12/16 06:48:45;;;;;;;;;;;;;;;21.61;31.41;103806.25;4230555;28;19931;-53
2023/12/16 06:50:47;;;;;;;;;;;;;;;21.58;31.81;103803.66;4230360;28;19923;-53
2023/12/16 06:52:48;;;;;;;;;;;;;;;21.58;31.51;103809.03;4230903;28;20007;-55
2023/12/16 06:54:50;;;;;;;;;;;;;;;21.60;31.75;103804.50;4230270;28;19964;-54
2023/12/16 06:56:51;;;;;;;;;;;;;;;21.59;31.41;103808.97;4230354;28;19920;-55
2023/12/16 06:58:52;;;;;;;;;;;;;;;21.62;31.40;103811.56;4230617;28;20374;-53
2023/12/16 07:00:54;;;;;;;;;;;;;;;21.63;31.64;103801.69;4229862;28;19919;-53
2023/12/16 07:02:56;;;;;;;;;;;;;;;21.65;31.58;103803.44;4230497;28;20042;-55
2023/12/16 07:04:57;;;;;;;;;;;;;;;21.65;31.29;103810.56;4230338;28;20413;-54
2023/12/16 07:07:03;;;;;;;;;;;;;;;21.65;31.47;103810.56;4230153;28;20394;-54
2023/12/16 07:09:04;;;;;;;;;;;;;;;21.63;31.57;103815.09;4230643;28;19950;-54
2023/12/16 07:11:06;;;;;;;;;;;;;;;21.50;31.58;103801.22;4230161;28;19924;-53
2023/12/16 07:13:07;;;;;;;;;;;;;;;21.57;31.24;103817.97;4230473;28;19920;-55
2023/12/16 07:15:10;;;;;;;;;;;;;;;21.55;31.73;103813.50;4230226;28;19926;-56
2023/12/16 07:17:12;;;;;;;;;;;;;;;21.57;31.58;103815.28;4230141;28;20291;-55
2023/12/16 07:19:14;;;;;;;;;;;;;;;21.56;31.70;103819.75;4230296;28;20224;-55
2023/12/16 07:21:16;;;;;;;;;;;;;;;21.59;31.60;103821.50;4229846;28;19924;-54
2023/12/16 07:23:17;;;;;;;;;;;;;;;21.60;31.44;103818.75;4229874;28;19927;-56
2023/12/16 07:25:19;;;;;;;;;;;;;;;21.61;31.28;103817.81;4230428;28;20347;-54
2023/12/16 07:27:22;;;;;;;;;;;;;;;21.62;31.51;103814.22;4229919;28;19942;-55
2023/12/16 07:29:25;;;;;;;;;;;;;;;21.62;31.53;103816.03;4229748;28;20010;-55
2023/12/16 07:31:26;;;;;;;;;;;;;;;21.59;31.49;103821.50;4229907;28;19927;-54
2023/12/16 07:33:28;;;;;;;;;;;;;;;21.55;31.56;103820.69;4230377;28;19939;-55
2023/12/16 07:35:30;;;;;;;;;;;;;;;21.53;31.59;103825.19;4230106;28;19928;-55
2023/12/16 07:37:31;;;;;;;;;;;;;;;21.51;31.65;103825.25;4229770;28;19973;-55
2023/12/16 07:39:33;;;;;;;;;;;;;;;21.53;31.46;103830.56;4230170;28;19924;-56
2023/12/16 07:41:34;;;;;;;;;;;;;;;21.51;31.20;103827.94;4231469;28;20002;-53
2023/12/16 07:43:37;;;;;;;;;;;;;;;21.55;31.12;103836.75;4232955;28;19934;-53
2023/12/16 07:45:39;;;;;;;;;;;;;;;21.58;31.01;103843.84;4233240;27;19919;-54
2023/12/16 07:47:40;;;;;;;;;;;;;;;21.57;31.17;103836.72;4233198;28;19920;-55
2023/12/16 07:49:42;;;;;;;;;;;;;;;21.58;31.32;103846.50;4233320;28;19927;-55
2023/12/16 07:51:44;;;;;;;;;;;;;;;21.58;31.36;103846.50;4233067;28;19920;-54
2023/12/16 07:53:48;;;;;;;;;;;;;;;21.57;31.30;103850.09;4233256;28;19935;-54
2023/12/16 07:55:53;;;;;;;;;;;;;;;21.53;31.54;103855.56;4233146;28;19920;-51
2023/12/16 07:57:55;;;;;;;;;;;;;;;21.50;31.31;103860.13;4232728;28;20323;-51
2023/12/16 07:59:56;;;;;;;;;;;;;;;21.48;31.23;103857.50;4233198;28;19923;-52
2023/12/16 08:02:00;;;;;;;;;;;;;;;21.50;31.22;103861.00;4233251;28;19927;-52
2023/12/16 08:04:01;;;;;;;;;;;;;;;21.51;31.43;103864.56;4229688;28;19924;-53
2023/12/16 08:06:03;;;;;;;;;;;;;;;21.52;31.38;103861.81;4232975;28;19920;-53
2023/12/16 08:08:05;;;;;;;;;;;;;;;21.55;31.20;103869.75;4232694;28;19923;-54
2023/12/16 08:10:06;;;;;;;;;;;;;;;21.57;31.39;103864.41;4233016;28;19935;-56
2023/12/16 08:12:08;;;;;;;;;;;;;;;21.57;31.17;103869.75;4232705;28;19919;-56
2023/12/16 08:14:09;;;;;;;;;;;;;;;21.57;31.42;103875.09;4232579;28;20044;-55
2023/12/16 08:16:11;;;;;;;;;;;;;;;21.53;31.23;103873.41;4232798;28;20343;-55
2023/12/16 08:18:13;;;;;;;;;;;;;;;21.50;31.27;103868.16;4232616;28;20339;-56
2023/12/16 08:20:16;;;;;;;;;;;;;;;21.47;31.30;103873.59;4232642;28;20408;-55
2023/12/16 08:22:18;;;;;;;;;;;;;;;21.43;31.29;103870.13;4232577;28;19920;-55
2023/12/16 08:24:20;;;;;;;;;;;;;;;21.44;31.13;103871.03;4232061;28;20040;-54
2023/12/16 08:26:21;;;;;;;;;;;;;;;21.47;31.20;103876.28;4232294;28;19924;-53
2023/12/16 08:28:23;;;;;;;;;;;;;;;21.41;31.22;103869.34;4232266;28;19926;-56
2023/12/16 08:30:25;;;;;;;;;;;;;;;21.53;30.90;103887.69;4232476;28;19965;-54
2023/12/16 08:32:26;;;;;;;;;;;;;;;21.54;31.18;103881.41;4232647;27;19963;-55
2023/12/16 08:34:31;;;;;;;;;;;;;;;21.55;31.10;103882.28;4232135;28;19919;-54
2023/12/16 08:36:33;;;;;;;;;;;;;;;21.56;31.24;103881.34;4232313;28;19972;-55
2023/12/16 08:38:38;;;;;;;;;;;;;;;21.55;30.92;103890.31;4232378;28;19919;-54
2023/12/16 08:40:40;;;;;;;;;;;;;;;21.51;30.94;103889.53;4220975;28;19974;-55
2023/12/16 08:42:43;;;;;;;;;;;;;;;21.49;31.31;103894.03;4232202;28;19958;-54
2023/12/16 08:44:45;;;;;;;;;;;;;;;21.48;30.97;103894.09;4232092;28;19920;-56
2023/12/16 08:46:46;;;;;;;;;;;;;;;21.49;31.02;103899.41;4232358;28;19928;-54
2023/12/16 08:48:48;;;;;;;;;;;;;;;21.51;30.93;103892.22;4232284;28;19923;-55
2023/12/16 08:50:49;;;;;;;;;;;;;;;21.53;30.83;103900.19;4232268;27;19978;-55
2023/12/16 08:52:51;;;;;;;;;;;;;;;21.56;31.19;103897.41;4231559;28;20010;-56
2023/12/16 08:54:52;;;;;;;;;;;;;;;21.58;31.11;103900.06;4231950;28;20381;-55
2023/12/16 08:56:54;;;;;;;;;;;;;;;21.59;30.85;103910.72;4231657;28;19965;-53
2023/12/16 08:58:56;;;;;;;;;;;;;;;21.59;30.84;103913.41;4231896;28;20065;-55
2023/12/16 09:00:58;;;;;;;;;;;;;;;21.58;30.72;103910.78;4232047;27;19924;-55
2023/12/16 09:03:00;;;;;;;;;;;;;;;21.54;31.21;103910.88;4231959;28;19920;-54
2023/12/16 09:05:02;;;;;;;;;;;;;;;21.54;31.18;103912.66;4231769;28;19965;-55
2023/12/16 09:07:03;;;;;;;;;;;;;;;21.52;30.97;103915.38;4231781;28;20006;-53
2023/12/16 09:09:05;;;;;;;;;;;;;;;21.54;30.94;103920.69;4232030;28;19924;-56
2023/12/16 09:11:09;;;;;;;;;;;;;;;21.54;31.02;103913.56;4231520;28;19926;-55
2023/12/16 09:13:10;;;;;;;;;;;;;;;21.56;30.94;103908.13;4231922;28;19920;-55
2023/12/16 09:15:12;;;;;;;;;;;;;;;21.57;31.08;103901.00;4231552;28;20259;-54
2023/12/16 09:17:13;;;;;;;;;;;;;;;21.57;31.06;103901.91;4231950;28;19924;-56
2023/12/16 09:19:15;;;;;;;;;;;;;;;21.58;30.86;103897.41;4231884;28;19919;-52
2023/12/16 09:21:18;;;;;;;;;;;;;;;21.60;31.00;103896.41;4231603;28;19962;-54
2023/12/16 09:23:19;;;;;;;;;;;;;;;21.60;31.01;103903.59;4231485;28;20283;-51
2023/12/16 09:25:21;;;;;;;;;;;;;;;21.55;30.74;103903.69;4231206;28;19994;-52
2023/12/16 09:27:22;;;;;;;;;;;;;;;21.53;30.92;103897.50;4231668;28;20386;-54
2023/12/16 09:29:24;;;;;;;;;;;;;;;21.49;30.77;103899.41;4231710;28;20447;-54
2023/12/16 09:31:28;;;;;;;;;;;;;;;21.50;31.04;103897.63;4231197;28;19924;-55
2023/12/16 09:33:31;;;;;;;;;;;;;;;21.48;30.89;103897.69;4228458;28;19926;-55
2023/12/16 09:35:33;;;;;;;;;;;;;;;21.40;31.25;103902.38;4221783;28;19966;-56
2023/12/16 09:37:34;;;;;;;;;;;;;;;21.32;31.12;103899.06;4231680;28;20298;-57
2023/12/16 09:39:36;;;;;;;;;;;;;;;21.28;31.09;103911.66;4230867;28;20263;-57
2023/12/16 09:41:44;;;;;;;;;;;;;;;21.26;31.19;103909.97;4231283;28;19924;-57
2023/12/16 09:43:49;;;;;;;;;;;;;;;21.23;31.38;103911.78;4230963;28;19967;-56
2023/12/16 09:45:51;;;;;;;;;;;;;;;21.08;31.60;103916.72;4229676;28;19955;-57
2023/12/16 09:47:52;;;;;;;;;;;;;;;21.05;31.62;103921.25;4231214;28;19927;-56
2023/12/16 09:49:57;;;;;;;;;;;;;;;21.09;31.32;103921.16;4231405;28;20003;-53
2023/12/16 09:52:00;;;;;;;;;;;;;;;21.09;31.21;103914.00;4229635;28;20006;-55
2023/12/16 09:54:03;;;;;;;;;;;;;;;21.09;31.26;103918.50;4230882;28;19919;-57
2023/12/16 09:56:05;;;;;;;;;;;;;;;21.03;31.29;103922.22;4230785;28;19919;-55
2023/12/16 09:58:07;;;;;;;;;;;;;;;21.11;31.30;103919.34;4230822;28;19919;-55
2023/12/16 10:00:09;;;;;;;;;;;;;;;21.22;31.03;103918.06;4231220;28;19919;-54
2023/12/16 10:02:27;;;;;;;;;;;;;;;21.29;31.09;103917.88;4231058;28;19919;-55
2023/12/16 10:04:30;;;;;;;;;;;;;;;21.21;31.06;103918.13;4231088;27;19973;-51
2023/12/16 10:06:32;;;;;;;;;;;;;;;21.30;30.95;103917.84;4231190;28;19919;-56
2023/12/16 10:08:34;;;;;;;;;;;;;;;21.34;30.94;103922.19;4228507;28;19951;-57
2023/12/16 10:10:36;;;;;;;;;;;;;;;21.37;30.92;103923.88;4230935;28;19942;-56
2023/12/16 10:12:37;;;;;;;;;;;;;;;21.38;30.99;103918.47;4229539;28;19976;-56
2023/12/16 10:14:47;;;;;;;;;;;;;;;21.41;31.19;103909.50;4230836;28;19965;-56
2023/12/16 10:16:48;;;;;;;;;;;;;;;21.42;31.16;103915.72;4230642;28;19927;-53
2023/12/16 10:18:54;;;;;;;;;;;;;;;21.42;31.26;103910.38;4230844;28;19920;-52
2023/12/16 10:20:55;;;;;;;;;;;;;;;21.51;31.18;103912.75;4230618;28;19919;-57
2023/12/16 10:23:04;;;;;;;;;;;;;;;21.58;31.13;103917.03;4229980;28;19919;-56
2023/12/16 10:25:05;;;;;;;;;;;;;;;21.61;30.90;103913.38;4229595;28;20379;-56